createdAt,value
2023-04-05T00:00:52.208Z,0.50
2023-04-05T00:03:40.196Z,0.60
2023-04-05T00:06:28.879Z,0.60
2023-04-05T00:09:16.139Z,0.60
2023-04-05T00:12:03.817Z,0.60
2023-04-05T00:14:50.778Z,0.70
2023-04-05T00:17:39.606Z,0.60
2023-04-05T00:20:26.806Z,0.50
2023-04-05T00:23:14.619Z,0.40
2023-04-05T00:26:01.712Z,0.20
2023-04-05T00:28:49.741Z,0.10
2023-04-05T00:31:37.023Z,0.00
2023-04-05T00:34:25.965Z,-0.10
2023-04-05T00:37:13.462Z,-0.20
2023-04-05T00:40:00.872Z,-0.30
2023-04-05T00:42:48.454Z,-0.40
2023-04-05T00:45:36.102Z,-0.30
2023-04-05T00:48:23.469Z,-0.30
2023-04-05T00:51:12.772Z,-0.20
2023-04-05T00:54:00.762Z,-0.10
2023-04-05T00:56:48.511Z,-0.10
2023-04-05T00:59:35.847Z,-0.10
2023-04-05T01:02:31.715Z,0.00
2023-04-05T01:05:31.165Z,0.10
2023-04-05T01:08:25.363Z,0.10
2023-04-05T01:11:14.472Z,0.10
2023-04-05T01:14:02.514Z,-0.10
2023-04-05T01:16:51.379Z,-0.20
2023-04-05T01:19:41.958Z,-0.20
2023-04-05T01:22:55.444Z,-0.20
2023-04-05T01:26:09.605Z,-0.40
2023-04-05T01:29:11.534Z,-0.50
2023-04-05T01:32:04.265Z,-0.50
2023-04-05T01:34:54.987Z,-0.50
2023-04-05T01:37:45.811Z,-0.30
2023-04-05T01:40:34.525Z,-0.30
2023-04-05T01:43:22.069Z,-0.50
2023-04-05T01:46:09.353Z,-0.60
2023-04-05T01:48:58.076Z,-0.70
2023-04-05T01:51:45.350Z,-0.60
2023-04-05T01:54:32.726Z,-0.60
2023-04-05T01:57:20.310Z,-0.50
2023-04-05T02:00:09.034Z,-0.30
2023-04-05T02:03:00.261Z,-0.60
2023-04-05T02:05:49.096Z,-0.50
2023-04-05T02:08:36.263Z,-0.50
2023-04-05T02:11:23.752Z,-0.50
2023-04-05T02:14:12.029Z,-0.60
2023-04-05T02:17:02.970Z,-0.70
2023-04-05T02:19:52.903Z,-0.70
2023-04-05T02:22:41.788Z,-0.70
2023-04-05T02:25:29.308Z,-0.60
2023-04-05T02:28:16.851Z,-0.50
2023-04-05T02:31:10.210Z,-0.50
2023-04-05T02:33:57.858Z,-0.30
2023-04-05T02:36:45.350Z,-0.30
2023-04-05T02:39:34.556Z,-0.20
2023-04-05T02:42:21.715Z,-0.10
2023-04-05T02:45:11.825Z,0.00
2023-04-05T02:47:59.029Z,0.10
2023-04-05T02:50:51.205Z,0.10
2023-04-05T02:53:39.273Z,0.20
2023-04-05T02:56:31.394Z,0.20
2023-04-05T02:59:20.663Z,0.00
2023-04-05T03:02:10.405Z,0.10
2023-04-05T03:04:58.131Z,0.10
2023-04-05T03:07:46.856Z,0.10
2023-04-05T03:10:36.163Z,0.00
2023-04-05T03:13:33.707Z,0.00
2023-04-05T03:16:23.126Z,0.20
2023-04-05T03:19:10.273Z,0.40
2023-04-05T03:22:01.620Z,0.50
2023-04-05T03:24:53.906Z,0.60
2023-04-05T03:27:42.596Z,0.60
2023-04-05T03:30:34.757Z,0.70
2023-04-05T03:33:19.049Z,0.70
2023-04-05T03:36:10.162Z,0.70
2023-04-05T03:38:59.281Z,0.50
2023-04-05T03:41:46.858Z,0.50
2023-04-05T03:44:34.178Z,0.60
2023-04-05T03:47:23.879Z,0.70
2023-04-05T03:50:13.166Z,0.60
2023-04-05T03:53:00.641Z,0.60
2023-04-05T03:55:50.308Z,0.60
2023-04-05T03:58:41.617Z,0.50
2023-04-05T04:01:29.397Z,0.40
2023-04-05T04:04:18.230Z,0.70
2023-04-05T04:07:08.000Z,0.80
2023-04-05T04:09:56.491Z,0.80
2023-04-05T04:12:43.850Z,0.60
2023-04-05T04:15:32.763Z,0.60
2023-04-05T04:18:35.780Z,0.70
2023-04-05T04:21:53.514Z,0.80
2023-04-05T04:25:04.527Z,0.80
2023-04-05T04:27:52.714Z,0.70
2023-04-05T04:31:13.515Z,0.80
2023-04-05T04:34:14.975Z,0.80
2023-04-05T04:37:07.410Z,0.90
2023-04-05T04:40:15.605Z,0.90
2023-04-05T04:43:18.936Z,1.00
2023-04-05T04:46:34.847Z,1.00
2023-04-05T04:49:29.243Z,1.10
2023-04-05T04:52:17.893Z,1.10
2023-04-05T04:55:05.693Z,1.10
2023-04-05T04:57:54.056Z,1.20
2023-04-05T05:00:44.604Z,1.20
2023-04-05T05:03:32.201Z,1.30
2023-04-05T05:06:22.045Z,1.10
2023-04-05T05:09:10.764Z,1.10
2023-04-05T05:12:07.234Z,1.20
2023-04-05T05:14:54.268Z,1.20
2023-04-05T05:17:44.853Z,1.30
2023-04-05T05:20:32.463Z,1.30
2023-04-05T05:23:21.040Z,1.30
2023-04-05T05:26:09.643Z,1.40
2023-04-05T05:28:57.014Z,1.40
2023-04-05T05:31:48.949Z,1.50
2023-04-05T05:34:37.248Z,1.50
2023-04-05T05:37:31.535Z,1.60
2023-04-05T05:40:19.154Z,1.70
2023-04-05T05:43:07.705Z,1.90
2023-04-05T05:45:54.966Z,2.00
2023-04-05T05:48:42.667Z,2.10
2023-04-05T05:51:29.795Z,2.20
2023-04-05T05:54:17.595Z,2.30
2023-04-05T05:57:05.493Z,2.40
2023-04-05T05:59:54.147Z,2.50
2023-04-05T06:02:41.553Z,2.60
2023-04-05T06:05:29.155Z,2.60
2023-04-05T06:08:16.623Z,2.60
2023-04-05T06:11:04.038Z,2.70
2023-04-05T06:13:52.461Z,2.80
2023-04-05T06:16:41.073Z,2.90
2023-04-05T06:19:28.425Z,3.00
2023-04-05T06:22:16.006Z,3.20
2023-04-05T06:25:03.421Z,3.40
2023-04-05T06:27:51.027Z,3.60
2023-04-05T06:30:38.608Z,3.60
2023-04-05T06:33:27.416Z,3.60
2023-04-05T06:36:14.633Z,3.70
2023-04-05T06:39:02.058Z,3.60
2023-04-05T06:41:49.526Z,3.50
2023-04-05T06:44:36.986Z,3.50
2023-04-05T06:47:24.404Z,3.50
2023-04-05T06:50:13.411Z,3.50
2023-04-05T06:53:00.909Z,3.60
2023-04-05T06:55:50.971Z,3.60
2023-04-05T06:58:38.704Z,3.60
2023-04-05T07:01:26.317Z,3.70
2023-04-05T07:04:14.067Z,3.70
2023-04-05T07:07:03.275Z,3.70
2023-04-05T07:09:50.419Z,3.80
2023-04-05T07:12:37.895Z,3.90
2023-04-05T07:15:25.384Z,4.00
2023-04-05T07:18:15.638Z,4.20
2023-04-05T07:21:03.697Z,4.30
2023-04-05T07:23:53.671Z,4.40
2023-04-05T07:26:41.208Z,4.40
2023-04-05T07:29:28.482Z,4.50
2023-04-05T07:32:15.924Z,4.40
2023-04-05T07:35:04.177Z,4.60
2023-04-05T07:37:52.286Z,4.90
2023-04-05T07:40:41.581Z,5.00
2023-04-05T07:43:28.879Z,5.00
2023-04-05T07:46:16.475Z,5.10
2023-04-05T07:49:03.791Z,4.90
2023-04-05T07:51:51.570Z,4.80
2023-04-05T07:54:41.366Z,5.20
2023-04-05T07:57:30.108Z,5.60
2023-04-05T08:00:17.821Z,5.60
2023-04-05T08:03:05.704Z,5.60
2023-04-05T08:05:54.829Z,5.80
2023-04-05T08:08:42.225Z,5.70
2023-04-05T08:11:29.730Z,6.20
2023-04-05T08:14:18.568Z,6.20
2023-04-05T08:17:05.615Z,6.20
2023-04-05T08:19:53.323Z,6.70
2023-04-05T08:22:40.744Z,6.50
2023-04-05T08:25:28.185Z,7.30
2023-04-05T08:28:15.895Z,7.30
2023-04-05T08:31:04.692Z,7.10
2023-04-05T08:33:51.929Z,7.50
2023-04-05T08:36:39.235Z,7.90
2023-04-05T08:39:26.721Z,8.30
2023-04-05T08:42:18.819Z,7.70
2023-04-05T08:45:10.255Z,8.20
2023-04-05T08:47:59.784Z,8.20
2023-04-05T08:50:52.617Z,8.10
2023-04-05T08:53:39.868Z,8.10
2023-04-05T08:56:32.473Z,8.00
2023-04-05T08:59:20.753Z,8.30
2023-04-05T09:02:16.325Z,8.50
2023-04-05T09:05:09.763Z,8.10
2023-04-05T09:07:59.214Z,7.00
2023-04-05T09:10:46.486Z,6.80
2023-04-05T09:13:33.748Z,6.70
2023-04-05T09:16:22.187Z,6.80
2023-04-05T09:19:10.339Z,7.00
2023-04-05T09:22:03.342Z,7.10
2023-04-05T09:24:56.501Z,7.10
2023-04-05T09:27:56.486Z,7.90
2023-04-05T09:30:47.559Z,7.70
2023-04-05T09:33:35.521Z,7.80
2023-04-05T09:36:22.876Z,8.40
2023-04-05T09:39:11.528Z,9.00
2023-04-05T09:42:16.795Z,9.30
2023-04-05T09:45:07.821Z,8.30
2023-04-05T09:48:54.899Z,7.80
2023-04-05T09:51:42.567Z,8.20
2023-04-05T09:54:43.104Z,7.70
2023-04-05T09:57:35.258Z,8.50
2023-04-05T10:00:24.053Z,8.40
2023-04-05T10:03:11.557Z,8.30
2023-04-05T10:05:59.773Z,8.00
2023-04-05T10:08:48.559Z,7.60
2023-04-05T10:11:38.135Z,7.90
2023-04-05T10:14:25.253Z,8.30
2023-04-05T10:17:17.545Z,8.30
2023-04-05T10:20:15.101Z,8.00
2023-04-05T10:23:08.397Z,8.20
2023-04-05T10:26:05.403Z,8.20
2023-04-05T10:29:03.126Z,8.20
2023-04-05T10:31:56.186Z,7.90
2023-04-05T10:34:50.136Z,7.80
2023-04-05T10:37:48.301Z,7.60
2023-04-05T10:40:37.876Z,7.60
2023-04-05T10:43:27.180Z,7.70
2023-04-05T10:46:21.738Z,7.30
2023-04-05T10:49:21.237Z,7.10
2023-04-05T10:52:08.550Z,7.10
2023-04-05T10:54:57.890Z,7.60
2023-04-05T10:57:46.348Z,7.50
2023-04-05T11:00:34.997Z,7.60
2023-04-05T11:03:49.585Z,7.70
2023-04-05T11:06:36.883Z,7.50
2023-04-05T11:09:26.209Z,7.40
2023-04-05T11:12:13.464Z,7.30
2023-04-05T11:15:31.755Z,7.30
2023-04-05T11:18:23.313Z,7.40
2023-04-05T11:21:11.873Z,7.80
2023-04-05T11:24:06.957Z,7.90
2023-04-05T11:26:56.124Z,7.90
2023-04-05T11:29:50.699Z,7.90
2023-04-05T11:32:43.087Z,8.10
2023-04-05T11:35:36.202Z,8.10
2023-04-05T11:38:24.631Z,8.00
2023-04-05T11:41:18.046Z,8.10
2023-04-05T11:44:06.781Z,8.10
2023-04-05T11:46:54.845Z,8.20
2023-04-05T11:49:43.168Z,8.00
2023-04-05T11:52:30.676Z,8.20
2023-04-05T11:55:27.747Z,8.00
2023-04-05T11:58:16.427Z,7.90
2023-04-05T12:01:07.200Z,8.00
2023-04-05T12:03:56.114Z,7.80
2023-04-05T12:06:43.435Z,7.50
2023-04-05T12:09:30.779Z,7.60
2023-04-05T12:12:19.766Z,7.60
2023-04-05T12:15:09.481Z,7.60
2023-04-05T12:17:56.709Z,7.40
2023-04-05T12:20:45.586Z,7.30
2023-04-05T12:23:33.055Z,7.40
2023-04-05T12:26:21.169Z,7.50
2023-04-05T12:29:09.557Z,7.50
2023-04-05T12:31:57.477Z,7.60
2023-04-05T12:34:49.088Z,7.50
2023-04-05T12:37:36.624Z,7.20
2023-04-05T12:40:25.060Z,7.40
2023-04-05T12:43:19.452Z,7.60
2023-04-05T12:46:11.586Z,7.40
2023-04-05T12:49:01.010Z,7.20
2023-04-05T12:51:49.536Z,7.40
2023-04-05T12:54:36.579Z,7.40
2023-04-05T12:57:32.116Z,7.20
2023-04-05T13:00:24.445Z,6.90
2023-04-05T13:03:20.334Z,6.90
2023-04-05T13:06:08.124Z,6.80
2023-04-05T13:08:55.606Z,6.90
2023-04-05T13:11:42.964Z,7.10
2023-04-05T13:14:30.416Z,7.10
2023-04-05T13:17:17.818Z,7.10
2023-04-05T13:20:08.227Z,7.30
2023-04-05T13:22:55.374Z,7.40
2023-04-05T13:25:45.250Z,7.30
2023-04-05T13:28:32.892Z,7.40
2023-04-05T13:31:20.154Z,7.60
2023-04-05T13:34:08.592Z,7.60
2023-04-05T13:36:57.319Z,7.80
2023-04-05T13:39:44.417Z,7.90
2023-04-05T13:42:31.909Z,7.90
2023-04-05T13:45:19.531Z,7.80
2023-04-05T13:48:07.202Z,8.20
2023-04-05T13:50:54.464Z,8.20
2023-04-05T13:53:43.397Z,8.20
2023-04-05T13:56:30.414Z,8.20
2023-04-05T13:59:19.458Z,8.10
2023-04-05T14:02:06.910Z,8.30
2023-04-05T14:04:54.529Z,8.30
2023-04-05T14:07:42.196Z,8.30
2023-04-05T14:10:32.442Z,8.20
2023-04-05T14:13:19.629Z,8.30
2023-04-05T14:16:07.569Z,8.10
2023-04-05T14:18:55.301Z,7.90
2023-04-05T14:21:43.035Z,7.70
2023-04-05T14:24:30.689Z,7.80
2023-04-05T14:27:22.223Z,7.80
2023-04-05T14:30:11.088Z,7.80
2023-04-05T14:32:58.712Z,7.70
2023-04-05T14:35:46.291Z,7.90
2023-04-05T14:38:33.340Z,8.00
2023-04-05T14:41:21.135Z,8.00
2023-04-05T14:44:10.346Z,8.00
2023-04-05T14:46:57.978Z,8.20
2023-04-05T14:49:45.580Z,8.20
2023-04-05T14:52:32.882Z,8.10
2023-04-05T14:55:20.339Z,8.00
2023-04-05T14:58:07.928Z,8.00
2023-04-05T15:00:57.152Z,8.30
2023-04-05T15:03:44.795Z,8.40
2023-04-05T15:06:32.383Z,8.40
2023-04-05T15:09:19.551Z,8.30
2023-04-05T15:12:08.033Z,8.40
2023-04-05T15:14:55.649Z,8.50
2023-04-05T15:17:44.514Z,8.50
2023-04-05T15:20:32.236Z,8.50
2023-04-05T15:23:19.871Z,8.50
2023-04-05T15:26:07.332Z,8.60
2023-04-05T15:28:54.857Z,8.60
2023-04-05T15:31:42.716Z,8.70
2023-04-05T15:34:32.371Z,8.50
2023-04-05T15:37:20.312Z,8.30
2023-04-05T15:40:09.041Z,8.30
2023-04-05T15:42:57.020Z,8.30
2023-04-05T15:45:44.350Z,8.30
2023-04-05T15:48:32.107Z,8.30
2023-04-05T15:51:21.311Z,8.10
2023-04-05T15:54:09.147Z,8.20
2023-04-05T15:56:56.665Z,8.10
2023-04-05T15:59:44.655Z,8.00
2023-04-05T16:02:32.548Z,8.00
2023-04-05T16:05:20.235Z,8.10
2023-04-05T16:08:09.397Z,8.10
2023-04-05T16:10:57.566Z,7.90
2023-04-05T16:13:45.124Z,7.90
2023-04-05T16:16:42.096Z,7.90
2023-04-05T16:19:38.029Z,7.90
2023-04-05T16:22:25.797Z,7.90
2023-04-05T16:25:14.621Z,7.80
2023-04-05T16:28:02.121Z,7.90
2023-04-05T16:30:51.628Z,8.00
2023-04-05T16:33:38.906Z,8.00
2023-04-05T16:36:27.621Z,7.90
2023-04-05T16:39:15.435Z,7.80
2023-04-05T16:42:04.470Z,7.90
2023-04-05T16:44:51.836Z,7.90
2023-04-05T16:47:39.425Z,7.80
2023-04-05T16:50:27.102Z,7.80
2023-04-05T16:53:16.020Z,7.70
2023-04-05T16:56:03.546Z,7.70
2023-04-05T16:58:52.462Z,7.60
2023-04-05T17:01:39.871Z,7.60
2023-04-05T17:04:27.515Z,7.60
2023-04-05T17:07:15.324Z,7.60
2023-04-05T17:10:04.403Z,7.50
2023-04-05T17:12:52.128Z,7.50
2023-04-05T17:15:41.611Z,7.40
2023-04-05T17:18:29.207Z,7.30
2023-04-05T17:21:17.062Z,7.30
2023-04-05T17:24:04.730Z,7.30
2023-04-05T17:26:52.498Z,7.20
2023-04-05T17:29:40.000Z,7.10
2023-04-05T17:32:29.520Z,7.10
2023-04-05T17:35:17.014Z,7.10
2023-04-05T17:38:04.890Z,7.10
2023-04-05T17:40:53.000Z,6.90
2023-04-05T17:43:40.564Z,6.80
2023-04-05T17:46:40.281Z,6.80
2023-04-05T17:49:32.129Z,6.80
2023-04-05T17:52:20.342Z,6.60
2023-04-05T17:55:08.679Z,6.60
2023-04-05T17:57:56.278Z,6.50
2023-04-05T18:00:44.949Z,6.50
2023-04-05T18:03:32.522Z,6.50
2023-04-05T18:06:22.767Z,6.40
2023-04-05T18:09:10.321Z,6.40
2023-04-05T18:11:58.140Z,6.30
2023-04-05T18:14:45.895Z,6.40
2023-04-05T18:17:33.236Z,6.50
2023-04-05T18:20:21.140Z,6.50
2023-04-05T18:23:10.230Z,6.50
2023-04-05T18:25:58.872Z,6.50
2023-04-05T18:28:46.631Z,6.50
2023-04-05T18:31:34.244Z,6.50
2023-04-05T18:34:22.068Z,6.40
2023-04-05T18:37:10.710Z,6.50
2023-04-05T18:39:59.581Z,6.40
2023-04-05T18:42:47.149Z,6.40
2023-04-05T18:45:37.342Z,6.40
2023-04-05T18:48:25.475Z,6.40
2023-04-05T18:51:13.028Z,6.40
2023-04-05T18:54:00.918Z,6.40
2023-04-05T18:56:49.766Z,6.30
2023-04-05T18:59:37.340Z,6.40
2023-04-05T19:02:25.235Z,6.30
2023-04-05T19:05:13.156Z,6.30
2023-04-05T19:08:00.682Z,6.30
2023-04-05T19:10:48.387Z,6.30
2023-04-05T19:13:37.610Z,6.30
2023-04-05T19:16:25.032Z,6.30
2023-04-05T19:19:12.683Z,6.30
2023-04-05T19:22:00.437Z,6.30
2023-04-05T19:24:48.598Z,6.30
2023-04-05T19:27:36.644Z,6.30
2023-04-05T19:30:25.560Z,6.30
2023-04-05T19:33:13.792Z,6.20
2023-04-05T19:36:03.252Z,6.20
2023-04-05T19:38:51.780Z,6.30
2023-04-05T19:41:39.178Z,6.20
2023-04-05T19:44:50.770Z,6.20
2023-04-05T19:47:44.979Z,6.20
2023-04-05T19:50:50.075Z,6.20
2023-04-05T19:53:49.223Z,6.10
2023-04-05T19:56:39.010Z,6.10
2023-04-05T19:59:30.452Z,6.10
2023-04-05T20:02:35.675Z,6.10
2023-04-05T20:05:58.641Z,6.00
2023-04-05T20:08:47.854Z,5.90
2023-04-05T20:11:35.493Z,5.90
2023-04-05T20:14:28.498Z,5.90
2023-04-05T20:17:18.866Z,5.80
2023-04-05T20:20:09.517Z,5.70
2023-04-05T20:22:58.970Z,5.80
2023-04-05T20:25:47.081Z,5.80
2023-04-05T20:28:39.243Z,5.80
2023-04-05T20:31:29.369Z,5.80
2023-04-05T20:34:23.038Z,5.80
2023-04-05T20:37:11.312Z,5.70
2023-04-05T20:40:00.784Z,5.60
2023-04-05T20:42:52.058Z,5.50
2023-04-05T20:45:39.838Z,5.50
2023-04-05T20:48:27.381Z,5.40
2023-04-05T20:51:16.085Z,5.50
2023-04-05T20:54:03.515Z,5.50
2023-04-05T20:56:53.122Z,5.40
2023-04-05T20:59:40.669Z,5.30
2023-04-05T21:02:28.679Z,5.10
2023-04-05T21:05:16.399Z,5.10
2023-04-05T21:08:04.062Z,5.20
2023-04-05T21:10:51.716Z,5.20
2023-04-05T21:13:41.377Z,5.00
2023-04-05T21:16:29.130Z,4.90
2023-04-05T21:19:16.823Z,4.80
2023-04-05T21:22:04.235Z,4.80
2023-04-05T21:24:52.082Z,4.70
2023-04-05T21:27:39.513Z,4.70
2023-04-05T21:30:28.728Z,4.60
2023-04-05T21:33:17.328Z,4.60
2023-04-05T21:36:05.505Z,4.70
2023-04-05T21:38:52.682Z,4.70
2023-04-05T21:41:39.890Z,4.80
2023-04-05T21:44:27.078Z,4.80
2023-04-05T21:47:17.455Z,4.80
2023-04-05T21:50:05.619Z,4.80
2023-04-05T21:52:53.199Z,4.80
2023-04-05T21:55:40.670Z,4.70
2023-04-05T21:58:27.907Z,4.40
2023-04-05T22:01:15.353Z,4.40
2023-04-05T22:04:04.040Z,4.50
2023-04-05T22:06:51.761Z,4.40
2023-04-05T22:09:39.484Z,4.20
2023-04-05T22:12:27.093Z,4.20
2023-04-05T22:15:14.796Z,4.20
2023-04-05T22:18:02.966Z,4.30
2023-04-05T22:20:52.124Z,4.40
2023-04-05T22:23:41.061Z,4.40
2023-04-05T22:26:30.210Z,4.40
2023-04-05T22:29:17.909Z,4.40
2023-04-05T22:32:05.901Z,4.50
2023-04-05T22:34:53.480Z,4.50
2023-04-05T22:37:42.175Z,4.60
2023-04-05T22:40:29.792Z,4.60
2023-04-05T22:43:17.387Z,4.50
2023-04-05T22:46:05.137Z,4.50
2023-04-05T22:48:53.045Z,4.50
2023-04-05T22:51:40.629Z,4.50
2023-04-05T22:54:29.773Z,4.40
2023-04-05T22:57:17.495Z,4.50
2023-04-05T23:00:05.808Z,4.50
2023-04-05T23:02:53.497Z,4.50
2023-04-05T23:05:41.435Z,4.40
2023-04-05T23:08:28.801Z,4.40
2023-04-05T23:11:17.533Z,4.30
2023-04-05T23:14:04.885Z,4.40
2023-04-05T23:16:52.374Z,4.30
2023-04-05T23:19:39.735Z,4.30
2023-04-05T23:22:27.471Z,4.20
2023-04-05T23:25:14.867Z,4.20
2023-04-05T23:28:03.987Z,3.90
2023-04-05T23:30:52.751Z,3.80
2023-04-05T23:33:40.331Z,3.80
2023-04-05T23:36:28.744Z,3.80
2023-04-05T23:39:16.546Z,3.80
2023-04-05T23:42:04.741Z,3.80
2023-04-05T23:44:53.668Z,3.60
2023-04-05T23:47:41.427Z,3.70
2023-04-05T23:50:28.815Z,3.70
2023-04-05T23:53:16.274Z,3.80
2023-04-05T23:56:04.081Z,3.80
2023-04-05T23:58:51.766Z,3.80
